Time;durP1;ratioP1;P1;durP2;ratioP2;P2;SDS_P1;SDS_P2;PMS_P1;PMS_P2;Temp;Humidity;BMP_temperature;BMP_pressure;BME280_temperature;BME280_humidity;BME280_pressure;Samples;Min_cycle;Max_cycle;Signal;HPM_P1;HPM_P2
2022/11/17 00:01:21;;;;;;;23.98;14.00;;;8.80;99.90;;;;;;5032845;28;20038;-65
2022/11/17 00:03:48;;;;;;;33.03;17.03;;;9.00;99.90;;;;;;5031097;28;20428;-66
2022/11/17 00:06:15;;;;;;;18.95;11.35;;;8.90;99.90;;;;;;5031684;28;20398;-65
2022/11/17 00:08:41;;;;;;;18.95;9.90;;;8.90;99.90;;;;;;5037537;28;20046;-65
2022/11/17 00:11:06;;;;;;;28.05;14.88;;;9.00;99.90;;;;;;5032670;28;20472;-65
2022/11/17 00:16:17;;;;;;;30.02;16.88;;;8.80;99.90;;;;;;5052672;28;20442;-65
2022/11/17 00:21:28;;;;;;;25.33;14.93;;;8.90;99.90;;;;;;5041349;28;20131;-65
2022/11/17 00:23:57;;;;;;;20.95;11.35;;;8.80;99.90;;;;;;5036334;28;20056;-65
2022/11/17 00:26:28;;;;;;;22.38;11.50;;;9.10;99.90;;;;;;5039638;28;20051;-65
2022/11/17 00:28:55;;;;;;;27.30;16.30;;;9.00;99.90;;;;;;5037101;28;20049;-65
2022/11/17 00:34:06;;;;;;;25.50;13.97;;;9.00;99.90;;;;;;5031424;28;20045;-65
2022/11/17 00:36:41;;;;;;;24.65;13.10;;;9.00;99.90;;;;;;5032441;28;20542;-65
2022/11/17 00:39:08;;;;;;;21.52;13.15;;;9.00;99.90;;;;;;5033733;28;20087;-65
2022/11/17 00:41:34;;;;;;;23.75;12.60;;;9.00;99.90;;;;;;5043694;28;20029;-65
2022/11/17 00:43:59;;;;;;;22.25;13.40;;;9.10;99.90;;;;;;5046153;28;20079;-65
2022/11/17 00:46:25;;;;;;;25.85;14.48;;;;;;;;;;5046808;28;20124;-65
2022/11/17 00:48:51;;;;;;;26.63;13.80;;;9.10;99.90;;;;;;5032421;28;20453;-65
2022/11/17 00:51:16;;;;;;;25.70;12.32;;;9.10;99.90;;;;;;5031144;28;20033;-65
2022/11/17 00:53:42;;;;;;;21.15;11.45;;;9.20;99.90;;;;;;5032431;28;20122;-65
2022/11/17 00:56:08;;;;;;;22.10;12.38;;;9.10;99.90;;;;;;5033685;28;20041;-65
2022/11/17 00:58:34;;;;;;;20.00;11.32;;;9.30;99.90;;;;;;5044817;28;20112;-65
2022/11/17 01:01:00;;;;;;;26.17;14.48;;;9.20;99.90;;;;;;5045888;28;20040;-65
2022/11/17 01:03:26;;;;;;;22.67;12.32;;;;;;;;;;5038049;28;20065;-65
2022/11/17 01:05:52;;;;;;;27.80;15.43;;;;;;;;;;5040187;28;20136;-65
2022/11/17 01:08:17;;;;;;;16.52;9.23;;;9.10;99.90;;;;;;5044684;28;20431;-65
2022/11/17 01:10:43;;;;;;;21.05;13.60;;;9.00;99.90;;;;;;5032294;28;20092;-65
2022/11/17 01:13:08;;;;;;;24.75;14.02;;;9.20;99.90;;;;;;5031079;28;20041;-65
2022/11/17 01:15:34;;;;;;;17.92;9.57;;;9.00;99.90;;;;;;5037523;28;20450;-65
2022/11/17 01:18:00;;;;;;;22.90;11.98;;;9.20;99.90;;;;;;5054794;28;20446;-65
2022/11/17 01:20:25;;;;;;;21.05;11.02;;;9.10;99.90;;;;;;5041736;28;20464;-65
2022/11/17 01:22:53;;;;;;;22.25;12.00;;;;;;;;;;5048173;28;20538;-65
2022/11/17 01:25:19;;;;;;;17.00;10.80;;;9.20;99.90;;;;;;5034532;28;20114;-65
2022/11/17 01:27:45;;;;;;;20.35;10.85;;;9.10;99.90;;;;;;5034190;28;20049;-65
2022/11/17 01:30:11;;;;;;;23.45;13.73;;;9.10;99.90;;;;;;5035662;28;20042;-65
2022/11/17 01:32:36;;;;;;;20.02;13.25;;;9.10;99.90;;;;;;5048108;28;20480;-65
2022/11/17 01:35:02;;;;;;;14.73;9.65;;;9.20;99.90;;;;;;5043788;28;20045;-65
2022/11/17 01:37:28;;;;;;;20.70;11.68;;;9.10;99.90;;;;;;5037955;28;20048;-65
2022/11/17 01:39:54;;;;;;;19.58;12.30;;;;;;;;;;5034080;28;20431;-65
2022/11/17 01:42:21;;;;;;;24.25;12.85;;;;;;;;;;5035461;28;20404;-65
2022/11/17 01:45:19;;;;;;;15.02;9.50;;;9.30;99.90;;;;;;5035387;28;20041;-65
2022/11/17 01:47:48;;;;;;;17.40;9.38;;;;;;;;;;5035236;28;20095;-65
2022/11/17 01:50:25;;;;;;;23.20;12.73;;;9.20;99.90;;;;;;5033887;28;20071;-65
2022/11/17 01:52:55;;;;;;;15.35;10.63;;;9.10;99.90;;;;;;5050539;28;20056;-65
2022/11/17 01:55:23;;;;;;;19.98;12.73;;;9.10;99.90;;;;;;5045823;28;20037;-65
2022/11/17 01:58:05;;;;;;;19.95;12.75;;;9.20;99.90;;;;;;5048883;28;20052;-65
2022/11/17 02:00:30;;;;;;;15.88;11.65;;;9.10;99.90;;;;;;5045411;28;20067;-65
2022/11/17 02:02:56;;;;;;;12.98;8.95;;;9.10;99.90;;;;;;5034765;28;20431;-65
2022/11/17 02:05:39;;;;;;;18.67;12.32;;;9.10;99.90;;;;;;5034531;28;20053;-65
2022/11/17 02:08:07;;;;;;;24.30;13.07;;;9.10;99.90;;;;;;5034920;28;20048;-65
2022/11/17 02:10:33;;;;;;;19.30;11.13;;;9.10;99.90;;;;;;5034701;28;20037;-65
2022/11/17 02:13:01;;;;;;;15.15;9.32;;;9.10;99.90;;;;;;5033281;28;20039;-65
2022/11/17 02:15:28;;;;;;;14.15;9.60;;;9.20;99.90;;;;;;5034397;28;20048;-65
2022/11/17 02:17:54;;;;;;;18.73;11.13;;;9.20;99.90;;;;;;5043181;28;20482;-65
2022/11/17 02:20:26;;;;;;;19.45;11.68;;;;;;;;;;5053758;28;20037;-65
2022/11/17 02:23:24;;;;;;;18.35;10.70;;;9.20;99.90;;;;;;5033247;28;20051;-65
2022/11/17 02:26:09;;;;;;;20.42;13.52;;;8.90;99.90;;;;;;5037297;28;20116;-65
2022/11/17 02:28:39;;;;;;;20.85;10.43;;;8.90;99.90;;;;;;5040346;28;20049;-65
2022/11/17 02:31:29;;;;;;;21.83;12.38;;;8.90;99.90;;;;;;5033014;28;20041;-65
2022/11/17 02:34:15;;;;;;;23.33;14.35;;;8.90;99.90;;;;;;5047446;28;20099;-65
2022/11/17 02:37:02;;;;;;;24.10;13.18;;;9.10;99.90;;;;;;5054378;28;20052;-65
2022/11/17 02:39:36;;;;;;;18.65;10.13;;;8.90;99.90;;;;;;5034413;28;20526;-65
2022/11/17 02:44:02;;;;;;;28.08;13.02;;;9.00;99.90;;;;;;5049262;28;20037;-65
2022/11/17 02:45:17;;;;;;;23.15;12.35;;;8.70;99.90;;;;;;5032543;28;20049;-65
2022/11/17 02:47:46;;;;;;;15.73;9.55;;;8.90;99.90;;;;;;5034869;28;20400;-65
2022/11/17 02:50:13;;;;;;;16.92;8.75;;;8.90;99.90;;;;;;5044123;28;20077;-65
2022/11/17 02:52:39;;;;;;;17.10;10.13;;;8.80;99.90;;;;;;5033696;28;20456;-65
2022/11/17 02:55:08;;;;;;;23.50;15.95;;;8.70;99.90;;;;;;5040804;28;20044;-65
2022/11/17 02:57:37;;;;;;;21.73;13.00;;;8.60;99.90;;;;;;5052691;28;20053;-65
2022/11/17 03:00:17;;;;;;;12.02;8.98;;;8.60;99.90;;;;;;5032610;28;20045;-65
2022/11/17 03:03:23;;;;;;;22.35;13.50;;;8.80;99.90;;;;;;5039394;28;20033;-64
2022/11/17 03:06:10;;;;;;;20.98;11.70;;;8.70;99.90;;;;;;5052062;28;20065;-65
2022/11/17 03:09:14;;;;;;;20.95;12.48;;;8.80;99.90;;;;;;5046472;28;20037;-65
2022/11/17 03:11:48;;;;;;;22.33;14.13;;;8.70;99.90;;;;;;5001148;28;20332;-65
2022/11/17 03:14:25;;;;;;;20.83;12.77;;;8.70;99.90;;;;;;5018135;28;20073;-65
2022/11/17 03:17:28;;;;;;;26.02;14.48;;;8.60;99.90;;;;;;5024772;28;20500;-65
2022/11/17 03:20:00;;;;;;;22.92;13.52;;;8.70;99.90;;;;;;4962029;28;20496;-65
2022/11/17 03:22:34;;;;;;;19.98;12.00;;;8.60;99.90;;;;;;5027313;28;20050;-65
2022/11/17 03:25:03;;;;;;;23.63;14.30;;;8.80;99.90;;;;;;5033294;28;20037;-66
2022/11/17 03:27:37;;;;;;;20.13;11.35;;;8.80;99.90;;;;;;5042447;28;20044;-66
2022/11/17 03:30:07;;;;;;;22.92;11.18;;;8.80;99.90;;;;;;5051845;28;20051;-66
2022/11/17 03:32:37;;;;;;;22.40;10.43;;;8.70;99.90;;;;;;5042166;28;20167;-66
2022/11/17 03:35:11;;;;;;;25.77;15.57;;;8.70;99.90;;;;;;5035549;28;20116;-65
2022/11/17 03:37:42;;;;;;;22.73;14.73;;;8.70;99.90;;;;;;5043753;28;20037;-66
2022/11/17 03:40:11;;;;;;;18.38;10.20;;;8.70;99.90;;;;;;5033165;28;20060;-65
2022/11/17 03:42:40;;;;;;;13.07;8.32;;;8.80;99.90;;;;;;5033365;28;20229;-65
2022/11/17 03:45:19;;;;;;;14.57;8.65;;;8.90;99.90;;;;;;5045619;28;20045;-65
2022/11/17 03:47:45;;;;;;;16.45;10.50;;;8.80;99.90;;;;;;5041370;28;20081;-65
2022/11/17 03:50:24;;;;;;;17.73;11.07;;;8.80;99.90;;;;;;5052847;28;20119;-65
2022/11/17 03:52:50;;;;;;;18.60;11.68;;;8.60;99.90;;;;;;5051692;28;20045;-66
2022/11/17 03:55:16;;;;;;;26.20;14.07;;;;;;;;;;5051325;28;20506;-65
2022/11/17 03:57:44;;;;;;;19.33;11.75;;;8.80;99.90;;;;;;5045232;28;20400;-66
2022/11/17 04:00:13;;;;;;;15.02;8.80;;;8.70;99.90;;;;;;5044229;28;20051;-65
2022/11/17 04:02:44;;;;;;;17.73;10.27;;;8.90;99.90;;;;;;5051499;28;20041;-66
2022/11/17 04:05:11;;;;;;;12.73;7.75;;;8.80;99.90;;;;;;5051251;28;20063;-66
2022/11/17 04:07:39;;;;;;;12.88;7.78;;;8.80;99.90;;;;;;5033329;28;20053;-66
2022/11/17 04:10:13;;;;;;;15.43;8.50;;;8.80;99.90;;;;;;5031758;28;20104;-66
2022/11/17 04:18:08;;;;;;;11.85;6.72;;;8.70;99.90;;;;;;5036938;28;20475;-66
2022/11/17 04:20:36;;;;;;;15.50;9.52;;;8.70;99.90;;;;;;5052536;28;20032;-66
2022/11/17 04:23:06;;;;;;;12.45;8.10;;;8.70;99.90;;;;;;5038354;28;20497;-66
2022/11/17 04:28:35;;;;;;;10.52;7.72;;;8.70;99.90;;;;;;5032687;28;20037;-66
2022/11/17 04:31:12;;;;;;;16.50;11.13;;;8.70;99.90;;;;;;5031364;28;20556;-66
2022/11/17 04:33:40;;;;;;;16.52;9.95;;;8.80;99.90;;;;;;5032864;28;20164;-66
2022/11/17 04:36:07;;;;;;;17.92;9.48;;;8.80;99.90;;;;;;5032772;28;20152;-67
2022/11/17 04:38:33;;;;;;;11.48;8.00;;;8.70;99.90;;;;;;5046660;28;20045;-66
2022/11/17 04:43:52;;;;;;;14.77;8.68;;;8.60;99.90;;;;;;5031185;28;20472;-66
2022/11/17 04:46:18;;;;;;;10.82;7.95;;;8.70;99.90;;;;;;5032616;28;20089;-66
2022/11/17 04:48:44;;;;;;;14.68;9.45;;;8.70;99.90;;;;;;5045777;28;20522;-66
2022/11/17 04:51:10;;;;;;;15.60;9.18;;;8.70;99.90;;;;;;5047894;28;20076;-66
2022/11/17 04:53:36;;;;;;;11.90;8.70;;;8.70;99.90;;;;;;5041971;28;20087;-66
2022/11/17 04:56:02;;;;;;;11.65;8.15;;;8.60;99.90;;;;;;5046572;28;20046;-66
2022/11/17 04:58:28;;;;;;;11.45;8.32;;;8.60;99.90;;;;;;5051543;28;20078;-67
2022/11/17 05:00:54;;;;;;;10.05;6.00;;;8.70;99.90;;;;;;5056319;28;20037;-67
2022/11/17 05:03:20;;;;;;;12.63;8.48;;;8.70;99.90;;;;;;5042588;28;20033;-67
2022/11/17 05:05:47;;;;;;;17.92;9.65;;;8.70;99.90;;;;;;5041128;28;20592;-64
2022/11/17 05:08:13;;;;;;;16.20;9.32;;;8.60;99.90;;;;;;5049500;28;20069;-64
2022/11/17 05:13:26;;;;;;;17.58;10.60;;;8.50;99.90;;;;;;5035909;28;20046;-64
2022/11/17 05:18:38;;;;;;;13.27;9.13;;;8.50;99.90;;;;;;5044079;28;20526;-64
2022/11/17 05:21:05;;;;;;;11.98;7.53;;;8.40;99.90;;;;;;5055521;28;20407;-64
2022/11/17 05:26:15;;;;;;;12.88;9.02;;;8.40;99.90;;;;;;5055508;28;20128;-64
2022/11/17 05:28:41;;;;;;;11.48;7.80;;;8.40;99.90;;;;;;5047946;28;20152;-64
2022/11/17 05:31:07;;;;;;;7.93;5.75;;;8.40;99.90;;;;;;5048459;28;20048;-65
2022/11/17 05:33:32;;;;;;;8.10;5.63;;;8.40;99.90;;;;;;5041939;28;20025;-64
2022/11/17 05:35:58;;;;;;;11.82;7.70;;;8.40;99.90;;;;;;5053959;28;20045;-65
2022/11/17 05:38:24;;;;;;;12.82;8.77;;;8.30;99.90;;;;;;5050824;28;20373;-64
2022/11/17 05:40:49;;;;;;;8.73;5.95;;;8.30;99.90;;;;;;5045924;28;20045;-64
2022/11/17 05:43:15;;;;;;;11.07;7.80;;;8.30;99.90;;;;;;5037563;28;20123;-64
2022/11/17 05:45:41;;;;;;;11.00;6.10;;;8.10;99.90;;;;;;5035411;28;20045;-64
2022/11/17 05:48:06;;;;;;;7.28;5.55;;;8.40;99.90;;;;;;5034168;28;20050;-65
2022/11/17 05:50:32;;;;;;;14.60;8.90;;;8.30;99.90;;;;;;5034143;28;20076;-64
2022/11/17 05:52:58;;;;;;;8.68;6.00;;;8.30;99.90;;;;;;5047657;28;20070;-64
2022/11/17 05:55:23;;;;;;;10.40;8.43;;;8.40;99.90;;;;;;5036444;28;20407;-64
2022/11/17 05:57:50;;;;;;;12.45;5.18;;;8.30;99.90;;;;;;5033789;28;20045;-64
2022/11/17 06:00:16;;;;;;;11.75;7.93;;;8.30;99.90;;;;;;5035733;28;20116;-64
2022/11/17 06:02:53;;;;;;;6.55;5.45;;;8.00;99.90;;;;;;5054901;28;20121;-64
2022/11/17 06:05:19;;;;;;;9.40;5.82;;;8.50;99.90;;;;;;5054621;28;20057;-64
2022/11/17 06:07:45;;;;;;;12.45;5.95;;;8.20;99.90;;;;;;5051957;28;20045;-64
2022/11/17 06:10:11;;;;;;;11.25;8.05;;;;;;;;;;5047513;28;20094;-67
2022/11/17 06:12:36;;;;;;;11.90;7.85;;;8.20;99.90;;;;;;5047453;28;20045;-64
2022/11/17 06:15:02;;;;;;;8.35;5.85;;;8.30;99.90;;;;;;5033283;28;20048;-64
2022/11/17 06:17:37;;;;;;;12.20;9.13;;;8.20;99.90;;;;;;5033254;28;20045;-70
2022/11/17 06:20:18;;;;;;;9.27;7.07;;;8.10;99.90;;;;;;5033426;28;20049;-64
2022/11/17 06:22:44;;;;;;;7.47;5.10;;;8.00;99.90;;;;;;5048447;28;20045;-64
2022/11/17 06:25:10;;;;;;;13.85;9.02;;;7.80;99.90;;;;;;5034477;28;20561;-64
2022/11/17 06:27:38;;;;;;;10.60;7.43;;;8.00;99.90;;;;;;5046908;28;20131;-64
2022/11/17 06:30:05;;;;;;;11.32;8.63;;;7.70;99.90;;;;;;5048501;28;20156;-64
2022/11/17 06:32:33;;;;;;;8.93;6.53;;;7.80;99.90;;;;;;5046716;28;20037;-64
2022/11/17 06:35:00;;;;;;;8.35;5.78;;;7.80;99.90;;;;;;5049967;28;20415;-64
2022/11/17 06:37:25;;;;;;;11.57;7.78;;;7.70;99.90;;;;;;5034303;28;20073;-64
2022/11/17 06:39:51;;;;;;;11.32;7.53;;;7.80;99.90;;;;;;5049531;28;20080;-64
2022/11/17 06:42:17;;;;;;;7.55;5.72;;;7.70;99.90;;;;;;5045753;28;20042;-64
2022/11/17 06:44:42;;;;;;;10.80;7.68;;;7.70;99.90;;;;;;5048132;28;20041;-65
2022/11/17 06:47:08;;;;;;;8.05;6.15;;;7.60;99.90;;;;;;5054196;28;20041;-64
2022/11/17 06:49:34;;;;;;;7.57;6.20;;;7.70;99.90;;;;;;5052697;28;20394;-64
2022/11/17 06:51:59;;;;;;;12.73;8.27;;;7.70;99.90;;;;;;5034230;28;20464;-64
2022/11/17 06:54:25;;;;;;;9.48;6.40;;;7.70;99.90;;;;;;5044331;28;20045;-64
2022/11/17 06:56:51;;;;;;;5.65;4.32;;;7.70;99.90;;;;;;5052554;28;20068;-64
2022/11/17 06:59:17;;;;;;;9.52;6.93;;;8.10;99.90;;;;;;5035566;28;20051;-64
2022/11/17 07:01:42;;;;;;;9.60;6.38;;;7.70;99.90;;;;;;5053397;28;20386;-65
2022/11/17 07:04:08;;;;;;;9.27;7.47;;;7.80;99.90;;;;;;5040137;28;20049;-64
2022/11/17 07:06:38;;;;;;;8.27;6.30;;;7.70;99.90;;;;;;5053733;28;20069;-64
2022/11/17 07:09:04;;;;;;;11.63;7.45;;;7.90;99.90;;;;;;5042414;28;20124;-64
2022/11/17 07:11:29;;;;;;;6.68;4.72;;;7.80;99.90;;;;;;5035620;28;20033;-64
2022/11/17 07:13:56;;;;;;;9.63;5.50;;;7.80;99.90;;;;;;5033310;28;20052;-65
2022/11/17 07:16:21;;;;;;;10.38;6.18;;;7.80;99.90;;;;;;5033372;28;20399;-64
2022/11/17 07:18:47;;;;;;;14.98;8.45;;;7.80;99.90;;;;;;5033679;28;20033;-64
2022/11/17 07:21:13;;;;;;;10.13;5.57;;;7.70;99.90;;;;;;5035279;28;20422;-64
2022/11/17 07:23:41;;;;;;;7.65;6.60;;;;;;;;;;5049108;28;20059;-64
2022/11/17 07:26:07;;;;;;;8.45;6.63;;;7.80;99.90;;;;;;5033898;28;20064;-64
2022/11/17 07:28:34;;;;;;;8.45;6.45;;;;;;;;;;5033224;28;20036;-64
2022/11/17 07:31:04;;;;;;;11.05;8.45;;;;;;;;;;5032351;28;20037;-64
2022/11/17 07:33:30;;;;;;;9.07;6.07;;;7.80;99.90;;;;;;5031015;28;20175;-64
2022/11/17 07:36:00;;;;;;;12.75;8.88;;;7.60;99.90;;;;;;5030940;28;20505;-63
2022/11/17 07:38:25;;;;;;;5.70;4.68;;;7.60;99.90;;;;;;5033004;28;20564;-63
2022/11/17 07:40:51;;;;;;;9.77;7.03;;;7.70;99.90;;;;;;5032939;28;20077;-64
2022/11/17 07:43:16;;;;;;;6.53;4.78;;;7.80;99.90;;;;;;5031763;28;20136;-64
2022/11/17 07:45:42;;;;;;;11.35;7.22;;;7.80;99.90;;;;;;5031971;28;20050;-63
2022/11/17 07:48:07;;;;;;;8.95;6.70;;;7.70;99.90;;;;;;5031707;28;20041;-64
2022/11/17 07:50:34;;;;;;;8.45;6.82;;;7.80;99.90;;;;;;5031641;28;20048;-64
2022/11/17 07:52:59;;;;;;;8.68;6.38;;;7.80;99.90;;;;;;5032898;28;20068;-63
2022/11/17 07:55:25;;;;;;;9.23;5.88;;;7.80;99.90;;;;;;5031599;28;20126;-64
2022/11/17 07:57:58;;;;;;;8.45;5.43;;;7.70;99.90;;;;;;5032277;28;20045;-64
2022/11/17 08:00:25;;;;;;;8.35;5.55;;;7.80;99.90;;;;;;5032103;28;20514;-63
2022/11/17 08:02:51;;;;;;;7.53;5.75;;;7.80;99.90;;;;;;5031568;28;20041;-63
2022/11/17 08:05:17;;;;;;;6.43;4.45;;;7.70;99.90;;;;;;5035755;28;20119;-63
2022/11/17 08:07:53;;;;;;;8.82;6.90;;;;;;;;;;5033239;28;20488;-63
2022/11/17 08:10:19;;;;;;;6.53;4.88;;;;;;;;;;5034753;28;20459;-64
2022/11/17 08:12:45;;;;;;;6.57;5.10;;;;;;;;;;5043244;28;20100;-64
2022/11/17 08:15:10;;;;;;;7.72;5.95;;;7.90;99.90;;;;;;5029958;28;20044;-64
2022/11/17 08:17:36;;;;;;;8.25;5.80;;;;;;;;;;5043160;28;20041;-64
2022/11/17 08:20:03;;;;;;;9.30;6.93;;;7.70;99.90;;;;;;5033785;28;20038;-64
2022/11/17 08:22:29;;;;;;;7.28;5.30;;;7.80;99.90;;;;;;5036365;28;20049;-64
2022/11/17 08:24:55;;;;;;;4.65;4.20;;;;;;;;;;5036422;28;20117;-64
2022/11/17 08:27:20;;;;;;;9.68;7.85;;;7.80;99.90;;;;;;5045344;28;20041;-64
2022/11/17 08:29:46;;;;;;;7.75;6.80;;;7.70;99.90;;;;;;5038001;28;20406;-64
2022/11/17 08:32:12;;;;;;;10.20;7.03;;;7.70;99.90;;;;;;5035503;28;20046;-64
2022/11/17 08:34:37;;;;;;;9.85;7.68;;;7.70;99.90;;;;;;5036390;28;20034;-64
2022/11/17 08:37:03;;;;;;;8.20;5.97;;;;;;;;;;5036484;28;20045;-63
2022/11/17 08:39:29;;;;;;;7.70;6.47;;;7.80;99.90;;;;;;5036452;28;20041;-64
2022/11/17 08:41:54;;;;;;;10.27;7.38;;;7.70;99.90;;;;;;5034991;28;20099;-63
2022/11/17 08:44:20;;;;;;;11.98;7.13;;;7.70;99.90;;;;;;5036220;28;20033;-64
2022/11/17 08:46:45;;;;;;;10.77;8.60;;;7.80;99.90;;;;;;5034959;28;20179;-63
2022/11/17 08:49:11;;;;;;;9.07;6.85;;;;;;;;;;5041061;28;20076;-64
2022/11/17 08:51:37;;;;;;;8.52;6.93;;;7.80;99.90;;;;;;5036173;28;20044;-63
2022/11/17 08:54:03;;;;;;;10.63;7.22;;;;;;;;;;5034795;28;20497;-63
2022/11/17 08:56:28;;;;;;;11.52;7.43;;;7.70;99.90;;;;;;5034621;28;20399;-63
2022/11/17 08:58:54;;;;;;;8.57;6.50;;;7.70;99.90;;;;;;5036195;28;20069;-63
2022/11/17 09:01:19;;;;;;;9.95;7.03;;;7.80;99.90;;;;;;5035867;28;20037;-63
2022/11/17 09:03:47;;;;;;;12.00;8.13;;;7.90;99.90;;;;;;5034654;28;20099;-63
2022/11/17 09:06:13;;;;;;;10.93;8.45;;;;;;;;;;5035821;28;20041;-63
2022/11/17 09:08:39;;;;;;;9.75;6.10;;;7.80;99.90;;;;;;5035463;28;20427;-63
2022/11/17 09:11:07;;;;;;;6.75;5.50;;;7.80;99.90;;;;;;5034676;28;20052;-63
2022/11/17 09:13:33;;;;;;;11.43;8.00;;;7.80;99.90;;;;;;5035968;28;20088;-63
2022/11/17 09:16:07;;;;;;;11.20;6.78;;;7.80;99.90;;;;;;5035799;28;20401;-63
2022/11/17 09:18:35;;;;;;;11.98;8.60;;;7.80;99.90;;;;;;5044764;28;20449;-63
2022/11/17 09:21:03;;;;;;;6.47;5.43;;;7.80;99.90;;;;;;5041646;28;20037;-63
2022/11/17 09:23:30;;;;;;;14.93;9.10;;;7.60;99.90;;;;;;5055676;28;20361;-63
2022/11/17 09:25:56;;;;;;;10.88;7.78;;;7.80;99.90;;;;;;5054229;28;20048;-63
2022/11/17 09:28:25;;;;;;;10.05;7.43;;;7.80;99.90;;;;;;5037832;28;20441;-63
2022/11/17 09:30:52;;;;;;;9.30;7.25;;;7.80;99.90;;;;;;5048087;28;20045;-63
2022/11/17 09:33:18;;;;;;;12.25;8.50;;;7.90;99.90;;;;;;5040139;28;20036;-63
2022/11/17 09:35:44;;;;;;;8.45;7.30;;;7.80;99.90;;;;;;5054504;28;20045;-63
2022/11/17 09:38:10;;;;;;;9.68;7.47;;;;;;;;;;5052820;28;20052;-63
2022/11/17 09:40:38;;;;;;;10.70;7.18;;;;;;;;;;5055653;28;20029;-63
2022/11/17 09:43:15;;;;;;;9.82;6.85;;;8.00;99.90;;;;;;5041114;28;20077;-64
2022/11/17 09:45:43;;;;;;;10.15;7.47;;;7.80;99.90;;;;;;5050775;28;20052;-64
2022/11/17 09:48:17;;;;;;;9.85;8.45;;;7.90;99.90;;;;;;5038472;28;20049;-63
2022/11/17 09:50:44;;;;;;;11.75;8.18;;;7.80;99.90;;;;;;5035349;28;20092;-64
2022/11/17 09:53:15;;;;;;;10.00;7.57;;;7.70;99.90;;;;;;5035031;28;20103;-63
2022/11/17 09:55:52;;;;;;;11.02;6.97;;;7.80;99.90;;;;;;5034991;28;20045;-63
2022/11/17 09:58:39;;;;;;;4.47;3.47;;;7.90;99.90;;;;;;5033568;28;20048;-64
2022/11/17 10:01:09;;;;;;;9.05;6.28;;;8.10;99.90;;;;;;5040818;28;20045;-64
2022/11/17 10:03:35;;;;;;;6.00;3.70;;;8.00;99.90;;;;;;5034977;28;20107;-65
2022/11/17 10:06:10;;;;;;;8.80;6.55;;;7.90;99.90;;;;;;5035057;28;20057;-65
2022/11/17 10:08:57;;;;;;;7.43;6.30;;;7.80;99.90;;;;;;5038967;28;20454;-65
2022/11/17 10:11:31;;;;;;;9.65;7.68;;;7.90;99.90;;;;;;5038970;28;20079;-65
2022/11/17 10:14:17;;;;;;;5.28;4.68;;;7.80;99.90;;;;;;5040305;28;20049;-65
2022/11/17 10:16:44;;;;;;;9.68;6.40;;;7.90;99.90;;;;;;5041236;28;20045;-65
2022/11/17 10:19:17;;;;;;;8.35;6.57;;;7.90;99.90;;;;;;5054329;28;20091;-64
2022/11/17 10:21:44;;;;;;;8.98;6.53;;;8.00;99.90;;;;;;5040365;28;20097;-65
2022/11/17 10:24:10;;;;;;;7.97;6.25;;;8.10;99.90;;;;;;5053071;28;20083;-65
2022/11/17 10:26:47;;;;;;;11.27;7.50;;;8.00;99.90;;;;;;5052954;28;20041;-65
2022/11/17 10:29:17;;;;;;;7.75;5.63;;;8.00;99.90;;;;;;5054563;28;20033;-65
2022/11/17 10:31:44;;;;;;;8.77;5.45;;;8.00;99.90;;;;;;5052891;28;20469;-65
2022/11/17 10:34:27;;;;;;;7.93;6.70;;;8.10;99.90;;;;;;5053037;28;20112;-65
2022/11/17 10:36:53;;;;;;;11.07;8.18;;;8.10;99.90;;;;;;5039118;28;20486;-64
2022/11/17 10:39:37;;;;;;;11.70;7.05;;;8.20;99.90;;;;;;5053317;28;20036;-65
2022/11/17 10:42:22;;;;;;;5.97;5.35;;;8.00;99.90;;;;;;5047685;28;20029;-63
2022/11/17 10:44:51;;;;;;;10.75;8.27;;;8.10;99.90;;;;;;5032676;28;20049;-64
2022/11/17 10:47:38;;;;;;;7.03;5.72;;;8.20;99.90;;;;;;5031633;28;20543;-64
2022/11/17 10:50:17;;;;;;;9.25;7.13;;;8.20;99.90;;;;;;5033349;28;20053;-64
2022/11/17 10:52:43;;;;;;;10.55;7.85;;;8.20;99.90;;;;;;5034054;28;20045;-64
2022/11/17 10:55:16;;;;;;;10.18;7.18;;;8.30;99.90;;;;;;5026651;28;20044;-64
2022/11/17 10:57:45;;;;;;;7.22;5.82;;;8.30;99.90;;;;;;5036336;28;20136;-64
2022/11/17 11:00:34;;;;;;;11.95;8.25;;;8.40;99.90;;;;;;5034758;28;20041;-64
2022/11/17 11:03:21;;;;;;;11.93;7.45;;;8.60;99.90;;;;;;5050389;28;20045;-64
2022/11/17 11:05:54;;;;;;;11.82;8.52;;;;;;;;;;5031994;28;20061;-64
2022/11/17 11:08:27;;;;;;;10.93;6.00;;;8.50;99.90;;;;;;5037466;28;20049;-64
2022/11/17 11:10:56;;;;;;;12.50;8.90;;;8.70;99.90;;;;;;5035174;28;20095;-64
2022/11/17 11:13:36;;;;;;;13.15;9.73;;;8.60;99.90;;;;;;5045258;28;20041;-64
2022/11/17 11:16:01;;;;;;;12.05;8.50;;;8.80;99.90;;;;;;5049796;28;20041;-64
2022/11/17 11:18:29;;;;;;;12.40;7.88;;;8.80;99.90;;;;;;5052088;28;20033;-65
2022/11/17 11:21:23;;;;;;;13.60;9.40;;;8.90;99.90;;;;;;5053349;28;20510;-64
2022/11/17 11:24:21;;;;;;;8.32;5.82;;;9.10;99.90;;;;;;5052164;28;20499;-64
2022/11/17 11:26:59;;;;;;;13.73;8.48;;;8.90;99.90;;;;;;5025739;28;20094;-64
2022/11/17 11:29:44;;;;;;;9.38;7.45;;;9.10;99.90;;;;;;5052191;28;20090;-64
2022/11/17 11:32:22;;;;;;;12.50;7.82;;;9.20;99.90;;;;;;5053319;28;20052;-64
2022/11/17 11:35:19;;;;;;;11.45;8.80;;;9.20;99.90;;;;;;5051750;28;20053;-65
2022/11/17 11:38:10;;;;;;;12.70;9.30;;;9.30;99.90;;;;;;5052144;28;20048;-65
2022/11/17 11:40:43;;;;;;;13.20;8.43;;;9.20;99.90;;;;;;5053227;28;20107;-65
2022/11/17 11:43:14;;;;;;;13.27;9.80;;;9.30;99.90;;;;;;5039088;28;20034;-65
2022/11/17 11:46:01;;;;;;;12.13;8.70;;;9.20;99.90;;;;;;5051792;28;20052;-65
2022/11/17 11:48:32;;;;;;;12.25;8.07;;;9.30;99.90;;;;;;5053048;28;20045;-64
2022/11/17 11:51:09;;;;;;;10.27;8.00;;;9.40;99.90;;;;;;5051918;28;20053;-64
2022/11/17 11:53:54;;;;;;;11.85;8.20;;;;;;;;;;5051497;28;20052;-65
2022/11/17 11:56:40;;;;;;;11.43;7.75;;;;;;;;;;5051373;28;20052;-63
2022/11/17 11:59:14;;;;;;;10.77;7.68;;;9.60;99.90;;;;;;5039358;28;20045;-65
2022/11/17 12:01:59;;;;;;;10.70;5.60;;;9.50;99.90;;;;;;5051861;28;20055;-64
2022/11/17 12:04:33;;;;;;;5.10;4.60;;;9.50;99.90;;;;;;5042758;28;20055;-64
2022/11/17 12:07:06;;;;;;;8.95;7.25;;;9.50;99.90;;;;;;5037393;28;20525;-64
2022/11/17 12:09:51;;;;;;;8.35;6.72;;;;;;;;;;5051453;28;20079;-65
2022/11/17 12:12:29;;;;;;;9.52;6.60;;;9.50;99.90;;;;;;5048721;28;20395;-64
2022/11/17 12:15:17;;;;;;;9.45;6.90;;;9.20;99.90;;;;;;5039583;28;20044;-64
2022/11/17 12:18:02;;;;;;;8.25;5.35;;;9.50;99.90;;;;;;5029594;28;20049;-64
2022/11/17 12:20:38;;;;;;;7.32;5.22;;;;;;;;;;5041810;28;20087;-64
2022/11/17 12:23:07;;;;;;;8.77;6.50;;;;;;;;;;5050723;28;20041;-64
2022/11/17 12:25:35;;;;;;;7.80;5.88;;;9.50;99.90;;;;;;5047135;28;20049;-64
2022/11/17 12:28:24;;;;;;;10.70;6.95;;;;;;;;;;5034522;28;20037;-65
2022/11/17 12:30:51;;;;;;;10.23;6.95;;;9.50;99.90;;;;;;5044473;28;20052;-64
2022/11/17 12:33:17;;;;;;;12.38;5.80;;;9.60;99.90;;;;;;5046824;28;20500;-64
2022/11/17 12:35:43;;;;;;;10.57;6.75;;;9.60;99.90;;;;;;5041450;28;20053;-64
2022/11/17 12:38:15;;;;;;;9.52;5.70;;;9.70;99.90;;;;;;5052702;28;20037;-64
2022/11/17 12:40:45;;;;;;;9.57;5.35;;;9.80;99.90;;;;;;5051256;28;20128;-64
2022/11/17 12:43:13;;;;;;;8.05;4.43;;;9.90;99.90;;;;;;5051008;28;20045;-63
2022/11/17 12:45:54;;;;;;;4.30;2.85;;;9.90;99.90;;;;;;5052612;28;20048;-63
2022/11/17 12:48:21;;;;;;;8.57;2.92;;;10.10;99.90;;;;;;5034233;28;20040;-64
2022/11/17 12:51:15;;;;;;;3.65;2.33;;;9.90;99.90;;;;;;5052252;28;20140;-64
2022/11/17 12:53:59;;;;;;;6.50;2.20;;;10.10;99.90;;;;;;5050942;28;20041;-64
2022/11/17 12:56:55;;;;;;;6.47;2.92;;;9.90;99.90;;;;;;5041425;28;20049;-64
2022/11/17 12:59:40;;;;;;;8.20;2.72;;;10.10;99.90;;;;;;5031251;28;20053;-64
2022/11/17 13:02:36;;;;;;;7.28;2.33;;;10.30;99.90;;;;;;5031305;28;20045;-65
2022/11/17 13:05:14;;;;;;;6.57;2.67;;;10.20;99.90;;;;;;5037971;28;20068;-65
2022/11/17 13:07:40;;;;;;;7.28;2.42;;;10.10;99.90;;;;;;5031040;28;20057;-65
2022/11/17 13:10:21;;;;;;;7.07;1.95;;;10.20;99.90;;;;;;5033288;28;20037;-64
2022/11/17 13:12:46;;;;;;;8.98;2.40;;;10.20;99.90;;;;;;5053206;28;20513;-65
2022/11/17 13:15:20;;;;;;;4.25;2.20;;;;;;;;;;5051980;28;20041;-65
2022/11/17 13:17:46;;;;;;;3.75;2.00;;;;;;;;;;5040152;28;20044;-63
2022/11/17 13:20:14;;;;;;;6.95;2.03;;;10.30;99.90;;;;;;5034898;28;20051;-64
2022/11/17 13:22:40;;;;;;;3.70;1.90;;;10.40;99.90;;;;;;5033904;28;20038;-64
2022/11/17 13:25:20;;;;;;;6.80;2.40;;;;;;;;;;5034909;28;20038;-64
2022/11/17 13:27:46;;;;;;;4.32;2.30;;;;;;;;;;5033929;28;20099;-64
2022/11/17 13:30:23;;;;;;;3.75;2.30;;;10.30;99.90;;;;;;5034783;28;20056;-63
2022/11/17 13:32:49;;;;;;;6.18;2.03;;;10.30;99.90;;;;;;5033568;28;20381;-63
2022/11/17 13:35:22;;;;;;;8.77;2.60;;;10.40;99.90;;;;;;5033270;28;20042;-63
2022/11/17 13:38:26;;;;;;;4.65;2.35;;;10.40;99.90;;;;;;5034762;28;20506;-63
2022/11/17 13:40:52;;;;;;;5.13;2.45;;;10.30;99.90;;;;;;5025217;28;20049;-63
2022/11/17 13:43:23;;;;;;;8.02;2.03;;;10.20;99.90;;;;;;5015994;28;20034;-64
2022/11/17 13:45:50;;;;;;;8.13;2.28;;;10.40;99.90;;;;;;5023793;28;20073;-65